createdAt,value
2023-03-05T00:00:28.568Z,4.54
2023-03-05T00:01:28.549Z,4.54
2023-03-05T00:02:28.564Z,4.54
2023-03-05T00:03:28.568Z,4.55
2023-03-05T00:04:28.513Z,4.54
2023-03-05T00:05:28.535Z,4.55
2023-03-05T00:06:28.466Z,4.54
2023-03-05T00:07:28.472Z,4.58
2023-03-05T00:08:28.453Z,4.55
2023-03-05T00:09:28.448Z,4.55
2023-03-05T00:10:28.431Z,4.55
2023-03-05T00:11:28.419Z,4.54
2023-03-05T00:12:28.377Z,4.54
2023-03-05T00:13:28.391Z,4.54
2023-03-05T00:14:28.370Z,4.52
2023-03-05T00:15:28.388Z,4.52
2023-03-05T00:16:28.339Z,4.51
2023-03-05T00:17:28.342Z,4.50
2023-03-05T00:18:28.294Z,4.51
2023-03-05T00:19:28.328Z,4.51
2023-03-05T00:20:28.279Z,4.50
2023-03-05T00:21:28.279Z,4.51
2023-03-05T00:22:28.247Z,4.50
2023-03-05T00:23:28.259Z,4.50
2023-03-05T00:24:28.249Z,4.50
2023-03-05T00:25:28.238Z,4.48
2023-03-05T00:26:28.202Z,4.48
2023-03-05T00:27:28.201Z,4.48
2023-03-05T00:28:28.177Z,4.48
2023-03-05T00:29:30.812Z,4.48
2023-03-05T00:30:28.165Z,4.48
2023-03-05T00:31:28.174Z,4.45
2023-03-05T00:32:28.248Z,4.44
2023-03-05T00:33:28.185Z,4.44
2023-03-05T00:34:28.108Z,4.42
2023-03-05T00:35:28.108Z,4.42
2023-03-05T00:36:28.063Z,4.44
2023-03-05T00:37:28.076Z,4.45
2023-03-05T00:38:28.071Z,4.44
2023-03-05T00:39:28.049Z,4.42
2023-03-05T00:40:28.066Z,4.42
2023-03-05T00:41:28.032Z,4.44
2023-03-05T00:42:27.984Z,4.44
2023-03-05T00:43:28.033Z,4.44
2023-03-05T00:44:27.960Z,4.44
2023-03-05T00:45:27.968Z,4.44
2023-03-05T00:46:27.988Z,4.45
2023-03-05T00:47:27.948Z,4.44
2023-03-05T00:48:27.930Z,4.45
2023-03-05T00:49:27.931Z,4.47
2023-03-05T00:50:27.902Z,4.47
2023-03-05T00:51:27.901Z,4.48
2023-03-05T00:52:27.852Z,4.50
2023-03-05T00:53:27.871Z,4.47
2023-03-05T00:54:27.843Z,4.45
2023-03-05T00:55:27.866Z,4.45
2023-03-05T00:56:27.816Z,4.45
2023-03-05T00:57:27.808Z,4.44
2023-03-05T00:58:27.768Z,4.45
2023-03-05T00:59:27.848Z,4.42
2023-03-05T01:00:27.754Z,4.42
2023-03-05T01:01:27.801Z,4.42
2023-03-05T01:02:27.737Z,4.41
2023-03-05T01:03:27.725Z,4.42
2023-03-05T01:04:27.703Z,4.42
2023-03-05T01:05:27.760Z,4.40
2023-03-05T01:06:27.669Z,4.41
2023-03-05T01:07:27.690Z,4.41
2023-03-05T01:08:27.638Z,4.41
2023-03-05T01:09:27.639Z,4.42
2023-03-05T01:10:27.611Z,4.42
2023-03-05T01:11:27.668Z,4.40
2023-03-05T01:12:27.618Z,4.40
2023-03-05T01:13:27.583Z,4.40
2023-03-05T01:14:27.552Z,4.40
2023-03-05T01:15:27.568Z,4.37
2023-03-05T01:16:27.720Z,4.37
2023-03-05T01:17:27.537Z,4.36
2023-03-05T01:18:27.504Z,4.34
2023-03-05T01:19:27.514Z,4.34
2023-03-05T01:20:27.473Z,4.33
2023-03-05T01:21:27.473Z,4.34
2023-03-05T01:22:27.462Z,4.33
2023-03-05T01:23:27.475Z,4.33
2023-03-05T01:24:27.416Z,4.29
2023-03-05T01:25:27.424Z,4.27
2023-03-05T01:26:27.404Z,4.26
2023-03-05T01:27:27.421Z,4.27
2023-03-05T01:28:27.365Z,4.29
2023-03-05T01:29:27.360Z,4.29
2023-03-05T01:30:27.346Z,4.30
2023-03-05T01:31:27.445Z,4.30
2023-03-05T01:32:27.414Z,4.30
2023-03-05T01:33:27.350Z,4.30
2023-03-05T01:34:27.272Z,4.29
2023-03-05T01:35:27.322Z,4.29
2023-03-05T01:36:27.252Z,4.32
2023-03-05T01:37:27.349Z,4.32
2023-03-05T01:38:27.253Z,4.34
2023-03-05T01:39:27.234Z,4.37
2023-03-05T01:40:27.252Z,4.36
2023-03-05T01:41:27.205Z,4.36
2023-03-05T01:42:27.181Z,4.37
2023-03-05T01:43:27.184Z,4.37
2023-03-05T01:44:27.171Z,4.37
2023-03-05T01:45:27.192Z,4.37
2023-03-05T01:46:27.137Z,4.37
2023-03-05T01:47:27.122Z,4.34
2023-03-05T01:48:27.098Z,4.33
2023-03-05T01:49:27.157Z,4.32
2023-03-05T01:50:27.072Z,4.30
2023-03-05T01:51:27.078Z,4.27
2023-03-05T01:52:27.063Z,4.26
2023-03-05T01:53:27.069Z,4.27
2023-03-05T01:54:27.027Z,4.26
2023-03-05T01:55:27.044Z,4.27
2023-03-05T01:56:26.993Z,4.26
2023-03-05T01:57:27.015Z,4.26
2023-03-05T01:58:26.981Z,4.26
2023-03-05T01:59:26.980Z,4.26
2023-03-05T02:00:26.994Z,4.27
2023-03-05T02:01:26.982Z,4.26
2023-03-05T02:02:26.960Z,4.24
2023-03-05T02:03:26.958Z,4.24
2023-03-05T02:04:26.905Z,4.24
2023-03-05T02:05:26.908Z,4.26
2023-03-05T02:06:26.880Z,4.26
2023-03-05T02:07:26.855Z,4.24
2023-03-05T02:08:26.841Z,4.26
2023-03-05T02:09:26.821Z,4.27
2023-03-05T02:10:26.820Z,4.27
2023-03-05T02:11:26.817Z,4.27
2023-03-05T02:12:27.672Z,4.27
2023-03-05T02:13:26.765Z,4.29
2023-03-05T02:14:26.790Z,4.30
2023-03-05T02:15:26.776Z,4.30
2023-03-05T02:16:26.867Z,4.26
2023-03-05T02:17:26.746Z,4.23
2023-03-05T02:18:26.731Z,4.24
2023-03-05T02:19:26.699Z,4.23
2023-03-05T02:20:26.700Z,4.24
2023-03-05T02:21:26.700Z,4.26
2023-03-05T02:22:26.753Z,4.26
2023-03-05T02:23:26.633Z,4.27
2023-03-05T02:24:26.665Z,4.26
2023-03-05T02:25:26.626Z,4.26
2023-03-05T02:26:26.636Z,4.26
2023-03-05T02:27:26.600Z,4.27
2023-03-05T02:28:26.635Z,4.29
2023-03-05T02:29:26.592Z,4.29
2023-03-05T02:30:26.604Z,4.29
2023-03-05T02:31:26.573Z,4.29
2023-03-05T02:32:26.603Z,4.30
2023-03-05T02:33:26.508Z,4.30
2023-03-05T02:34:26.542Z,4.32
2023-03-05T02:35:26.514Z,4.34
2023-03-05T02:36:26.526Z,4.34
2023-03-05T02:37:26.451Z,4.34
2023-03-05T02:38:26.502Z,4.34
2023-03-05T02:39:26.431Z,4.34
2023-03-05T02:40:26.430Z,4.32
2023-03-05T02:41:26.403Z,4.32
2023-03-05T02:42:26.494Z,4.30
2023-03-05T02:43:26.379Z,4.29
2023-03-05T02:44:26.400Z,4.27
2023-03-05T02:45:26.359Z,4.27
2023-03-05T02:46:26.367Z,4.27
2023-03-05T02:47:26.355Z,4.27
2023-03-05T02:48:26.339Z,4.27
2023-03-05T02:49:26.288Z,4.29
2023-03-05T02:50:26.310Z,4.30
2023-03-05T02:51:26.295Z,4.32
2023-03-05T02:52:26.300Z,4.30
2023-03-05T02:53:26.239Z,4.29
2023-03-05T02:54:26.285Z,4.27
2023-03-05T02:55:26.276Z,4.29
2023-03-05T02:56:26.238Z,4.26
2023-03-05T02:57:26.209Z,4.26
2023-03-05T02:58:26.217Z,4.27
2023-03-05T02:59:26.201Z,4.27
2023-03-05T03:00:26.198Z,4.26
2023-03-05T03:01:26.196Z,4.27
2023-03-05T03:02:26.166Z,4.26
2023-03-05T03:03:26.199Z,4.24
2023-03-05T03:04:26.147Z,4.24
2023-03-05T03:05:26.094Z,4.26
2023-03-05T03:06:26.121Z,4.27
2023-03-05T03:07:26.065Z,4.27
2023-03-05T03:08:26.073Z,4.27
2023-03-05T03:09:26.046Z,4.27
2023-03-05T03:10:26.071Z,4.26
2023-03-05T03:11:25.998Z,4.26
2023-03-05T03:12:26.016Z,4.24
2023-03-05T03:13:25.992Z,4.26
2023-03-05T03:14:26.013Z,4.26
2023-03-05T03:15:25.952Z,4.26
2023-03-05T03:16:26.074Z,4.26
2023-03-05T03:17:25.923Z,4.26
2023-03-05T03:18:25.957Z,4.26
2023-03-05T03:19:25.916Z,4.26
2023-03-05T03:20:25.944Z,4.27
2023-03-05T03:21:25.919Z,4.27
2023-03-05T03:22:25.902Z,4.29
2023-03-05T03:23:25.868Z,4.29
2023-03-05T03:24:25.867Z,4.30
2023-03-05T03:25:25.847Z,4.27
2023-03-05T03:26:25.866Z,4.29
2023-03-05T03:27:25.812Z,4.27
2023-03-05T03:28:25.824Z,4.26
2023-03-05T03:29:25.800Z,4.27
2023-03-05T03:30:25.828Z,4.26
2023-03-05T03:31:25.756Z,4.24
2023-03-05T03:32:25.835Z,4.22
2023-03-05T03:33:25.737Z,4.22
2023-03-05T03:34:25.736Z,4.22
2023-03-05T03:35:25.810Z,4.20
2023-03-05T03:36:25.735Z,4.22
2023-03-05T03:37:25.699Z,4.22
2023-03-05T03:38:25.684Z,4.20
2023-03-05T03:39:25.647Z,4.22
2023-03-05T03:40:25.665Z,4.23
2023-03-05T03:41:26.086Z,4.22
2023-03-05T03:42:25.652Z,4.20
2023-03-05T03:43:25.621Z,4.20
2023-03-05T03:44:25.605Z,4.20
2023-03-05T03:45:25.586Z,4.20
2023-03-05T03:46:25.652Z,4.16
2023-03-05T03:47:25.570Z,4.16
2023-03-05T03:48:25.643Z,4.18
2023-03-05T03:49:25.512Z,4.16
2023-03-05T03:50:25.573Z,4.14
2023-03-05T03:51:25.481Z,4.12
2023-03-05T03:52:25.512Z,4.11
2023-03-05T03:53:25.499Z,4.14
2023-03-05T03:54:25.489Z,4.14
2023-03-05T03:55:25.439Z,4.12
2023-03-05T03:56:25.523Z,4.11
2023-03-05T03:57:25.453Z,4.11
2023-03-05T03:58:25.427Z,4.09
2023-03-05T03:59:25.443Z,4.09
2023-03-05T04:00:25.372Z,4.12
2023-03-05T04:01:25.400Z,4.11
2023-03-05T04:02:25.474Z,4.12
2023-03-05T04:03:25.375Z,4.08
2023-03-05T04:04:25.369Z,4.09
2023-03-05T04:05:25.348Z,4.08
2023-03-05T04:06:25.294Z,4.05
2023-03-05T04:07:25.324Z,4.05
2023-03-05T04:08:25.293Z,4.04
2023-03-05T04:09:25.287Z,4.04
2023-03-05T04:10:25.241Z,4.00
2023-03-05T04:11:25.276Z,3.98
2023-03-05T04:12:25.236Z,3.97
2023-03-05T04:13:25.256Z,4.00
2023-03-05T04:14:25.207Z,4.04
2023-03-05T04:15:25.221Z,4.04
2023-03-05T04:16:25.316Z,4.08
2023-03-05T04:17:25.208Z,4.08
2023-03-05T04:18:25.144Z,4.09
2023-03-05T04:19:25.180Z,4.11
2023-03-05T04:20:25.110Z,4.08
2023-03-05T04:21:25.145Z,4.09
2023-03-05T04:22:25.103Z,4.09
2023-03-05T04:23:25.124Z,4.11
2023-03-05T04:24:25.099Z,4.09
2023-03-05T04:25:25.067Z,4.12
2023-03-05T04:26:25.054Z,4.12
2023-03-05T04:27:25.053Z,4.11
2023-03-05T04:28:25.055Z,4.12
2023-03-05T04:29:25.020Z,4.12
2023-03-05T04:30:24.997Z,4.12
2023-03-05T04:31:25.082Z,4.12
2023-03-05T04:32:25.032Z,4.09
2023-03-05T04:33:24.995Z,4.11
2023-03-05T04:34:24.924Z,4.09
2023-03-05T04:35:25.025Z,4.08
2023-03-05T04:36:24.925Z,4.08
2023-03-05T04:37:24.906Z,4.09
2023-03-05T04:38:24.929Z,4.11
2023-03-05T04:39:24.882Z,4.11
2023-03-05T04:40:24.885Z,4.12
2023-03-05T04:41:24.889Z,4.14
2023-03-05T04:42:24.806Z,4.12
2023-03-05T04:43:24.857Z,4.14
2023-03-05T04:44:24.805Z,4.15
2023-03-05T04:45:24.808Z,4.12
2023-03-05T04:46:24.845Z,4.11
2023-03-05T04:47:24.813Z,4.12
2023-03-05T04:48:24.752Z,4.12
2023-03-05T04:49:24.753Z,4.14
2023-03-05T04:50:24.716Z,4.14
2023-03-05T04:51:24.741Z,4.12
2023-03-05T04:52:24.687Z,4.12
2023-03-05T04:53:24.752Z,4.12
2023-03-05T04:54:24.661Z,4.09
2023-03-05T04:55:24.673Z,4.09
2023-03-05T04:56:24.637Z,4.09
2023-03-05T04:57:24.683Z,4.09
2023-03-05T04:58:24.600Z,4.08
2023-03-05T04:59:24.635Z,4.08
2023-03-05T05:00:24.606Z,4.06
2023-03-05T05:01:24.644Z,4.08
2023-03-05T05:02:24.549Z,4.08
2023-03-05T05:03:24.587Z,4.05
2023-03-05T05:04:24.549Z,4.04
2023-03-05T05:05:24.759Z,4.02
2023-03-05T05:06:24.503Z,4.02
2023-03-05T05:07:24.518Z,4.00
2023-03-05T05:08:24.503Z,3.98
2023-03-05T05:09:24.503Z,3.97
2023-03-05T05:10:24.495Z,3.97
2023-03-05T05:11:24.452Z,3.98
2023-03-05T05:12:24.437Z,3.98
2023-03-05T05:13:24.427Z,3.97
2023-03-05T05:14:24.410Z,4.00
2023-03-05T05:15:24.436Z,4.00
2023-03-05T05:16:24.426Z,4.04
2023-03-05T05:17:24.383Z,4.05
2023-03-05T05:18:24.354Z,4.06
2023-03-05T05:19:24.400Z,4.06
2023-03-05T05:20:24.375Z,4.05
2023-03-05T05:21:24.328Z,4.08
2023-03-05T05:22:24.287Z,4.06
2023-03-05T05:23:24.312Z,4.08
2023-03-05T05:24:24.320Z,4.08
2023-03-05T05:25:24.296Z,4.06
2023-03-05T05:26:24.244Z,4.02
2023-03-05T05:27:24.258Z,4.04
2023-03-05T05:28:24.208Z,4.04
2023-03-05T05:29:24.270Z,4.00
2023-03-05T05:30:24.198Z,3.98
2023-03-05T05:31:24.254Z,3.98
2023-03-05T05:32:24.281Z,4.00
2023-03-05T05:33:24.176Z,4.02
2023-03-05T05:34:24.166Z,4.04
2023-03-05T05:35:24.210Z,4.05
2023-03-05T05:36:24.133Z,4.06
2023-03-05T05:37:24.139Z,4.05
2023-03-05T05:38:24.085Z,4.05
2023-03-05T05:39:24.134Z,4.04
2023-03-05T05:40:24.077Z,4.04
2023-03-05T05:41:24.077Z,4.00
2023-03-05T05:42:24.041Z,3.98
2023-03-05T05:43:24.045Z,4.00
2023-03-05T05:44:24.026Z,4.00
2023-03-05T05:45:24.281Z,4.00
2023-03-05T05:46:24.168Z,4.04
2023-03-05T05:47:23.985Z,4.00
2023-03-05T05:48:23.957Z,4.02
2023-03-05T05:49:23.966Z,4.00
2023-03-05T05:50:23.953Z,4.02
2023-03-05T05:51:23.950Z,4.05
2023-03-05T05:52:23.940Z,4.06
2023-03-05T05:53:23.923Z,4.06
2023-03-05T05:54:23.894Z,4.06
2023-03-05T05:55:23.902Z,4.06
2023-03-05T05:56:23.860Z,4.08
2023-03-05T05:57:23.857Z,4.09
2023-03-05T05:58:23.831Z,4.05
2023-03-05T05:59:23.848Z,4.04
2023-03-05T06:00:23.921Z,4.02
2023-03-05T06:01:23.840Z,4.02
2023-03-05T06:02:23.894Z,4.00
2023-03-05T06:03:23.806Z,3.97
2023-03-05T06:04:23.751Z,3.96
2023-03-05T06:05:23.754Z,3.93
2023-03-05T06:06:23.725Z,3.91
2023-03-05T06:07:23.750Z,3.90
2023-03-05T06:08:23.704Z,3.90
2023-03-05T06:09:23.720Z,3.88
2023-03-05T06:10:23.676Z,3.88
2023-03-05T06:11:23.723Z,3.90
2023-03-05T06:12:23.672Z,3.88
2023-03-05T06:13:23.682Z,3.90
2023-03-05T06:14:23.612Z,3.90
2023-03-05T06:15:23.624Z,3.87
2023-03-05T06:16:23.672Z,3.90
2023-03-05T06:17:30.407Z,3.91
2023-03-05T06:18:23.586Z,3.93
2023-03-05T06:19:23.569Z,3.96
2023-03-05T06:20:23.582Z,3.93
2023-03-05T06:21:23.532Z,3.93
2023-03-05T06:22:23.541Z,3.96
2023-03-05T06:23:23.494Z,3.96
2023-03-05T06:24:23.520Z,3.98
2023-03-05T06:25:23.493Z,3.98
2023-03-05T06:26:23.516Z,4.00
2023-03-05T06:27:23.456Z,4.02
2023-03-05T06:28:23.502Z,4.00
2023-03-05T06:29:23.425Z,4.04
2023-03-05T06:30:23.434Z,4.04
2023-03-05T06:31:23.405Z,4.05
2023-03-05T06:32:23.474Z,4.05
2023-03-05T06:33:23.402Z,4.04
2023-03-05T06:34:23.410Z,4.04
2023-03-05T06:35:23.351Z,4.05
2023-03-05T06:36:23.358Z,4.06
2023-03-05T06:37:23.334Z,4.06
2023-03-05T06:38:23.365Z,4.06
2023-03-05T06:39:23.289Z,4.02
2023-03-05T06:40:23.313Z,4.04
2023-03-05T06:41:23.292Z,4.02
2023-03-05T06:42:23.295Z,4.05
2023-03-05T06:43:23.233Z,4.06
2023-03-05T06:44:23.246Z,4.06
2023-03-05T06:45:23.208Z,4.09
2023-03-05T06:46:23.340Z,4.09
2023-03-05T06:47:23.193Z,4.09
2023-03-05T06:48:23.216Z,4.08
2023-03-05T06:49:23.185Z,4.06
2023-03-05T06:50:23.173Z,4.05
2023-03-05T06:51:23.169Z,4.08
2023-03-05T06:52:23.147Z,4.09
2023-03-05T06:53:23.137Z,4.11
2023-03-05T06:54:23.150Z,4.12
2023-03-05T06:55:23.077Z,4.14
2023-03-05T06:56:23.150Z,4.14
2023-03-05T06:57:23.054Z,4.15
2023-03-05T06:58:23.084Z,4.15
2023-03-05T06:59:23.052Z,4.15
2023-03-05T07:00:23.032Z,4.16
2023-03-05T07:01:23.045Z,4.18
2023-03-05T07:02:23.150Z,4.20
2023-03-05T07:03:22.992Z,4.20
2023-03-05T07:04:23.008Z,4.22
2023-03-05T07:05:22.990Z,4.22
2023-03-05T07:06:22.983Z,4.23
2023-03-05T07:07:22.945Z,4.23
2023-03-05T07:08:22.962Z,4.26
2023-03-05T07:09:22.918Z,4.29
2023-03-05T07:10:22.901Z,4.29
2023-03-05T07:11:22.873Z,4.30
2023-03-05T07:12:22.941Z,4.27
2023-03-05T07:13:22.851Z,4.27
2023-03-05T07:14:22.863Z,4.29
2023-03-05T07:15:22.872Z,4.30
2023-03-05T07:16:22.850Z,4.30
2023-03-05T07:17:22.803Z,4.30
2023-03-05T07:18:22.813Z,4.29
2023-03-05T07:19:22.775Z,4.30
2023-03-05T07:20:22.811Z,4.32
2023-03-05T07:21:22.749Z,4.33
2023-03-05T07:22:22.764Z,4.34
2023-03-05T07:23:22.714Z,4.33
2023-03-05T07:24:22.757Z,4.34
2023-03-05T07:25:22.678Z,4.33
2023-03-05T07:26:22.713Z,4.34
2023-03-05T07:27:22.681Z,4.34
2023-03-05T07:28:22.686Z,4.36
2023-03-05T07:29:22.651Z,4.34
2023-03-05T07:30:22.663Z,4.36
2023-03-05T07:31:22.704Z,4.36
2023-03-05T07:32:22.650Z,4.36
2023-03-05T07:33:22.584Z,4.37
2023-03-05T07:34:22.623Z,4.40
2023-03-05T07:35:22.602Z,4.41
2023-03-05T07:36:22.559Z,4.41
2023-03-05T07:37:22.525Z,4.42
2023-03-05T07:38:22.574Z,4.42
2023-03-05T07:39:22.509Z,4.42
2023-03-05T07:40:22.515Z,4.42
2023-03-05T07:41:22.487Z,4.45
2023-03-05T07:42:22.548Z,4.42
2023-03-05T07:43:22.478Z,4.44
2023-03-05T07:44:22.485Z,4.44
2023-03-05T07:45:22.437Z,4.45
2023-03-05T07:46:22.514Z,4.48
2023-03-05T07:47:22.423Z,4.48
2023-03-05T07:48:22.430Z,4.52
2023-03-05T07:49:22.387Z,4.52
2023-03-05T07:50:22.372Z,4.54
2023-03-05T07:51:22.372Z,4.54
2023-03-05T07:52:22.382Z,4.54
2023-03-05T07:53:22.320Z,4.58
2023-03-05T07:54:22.338Z,4.59
2023-03-05T07:55:22.313Z,4.59
2023-03-05T07:56:22.304Z,4.59
2023-03-05T07:57:22.289Z,4.62
2023-03-05T07:58:22.291Z,4.62
2023-03-05T07:59:22.240Z,4.63
2023-03-05T08:00:22.273Z,4.65
2023-03-05T08:01:22.234Z,4.65
2023-03-05T08:02:22.259Z,4.66
2023-03-05T08:03:22.182Z,4.70
2023-03-05T08:04:22.290Z,4.72
2023-03-05T08:05:22.165Z,4.77
2023-03-05T08:06:22.185Z,4.78
2023-03-05T08:07:22.141Z,4.80
2023-03-05T08:08:22.175Z,4.84
2023-03-05T08:09:22.148Z,4.82
2023-03-05T08:10:22.187Z,4.84
2023-03-05T08:11:22.152Z,4.85
2023-03-05T08:12:22.096Z,4.88
2023-03-05T08:13:22.054Z,4.88
2023-03-05T08:14:22.114Z,4.89
2023-03-05T08:15:22.029Z,4.91
2023-03-05T08:16:22.193Z,4.92
2023-03-05T08:17:22.020Z,4.97
2023-03-05T08:18:22.034Z,4.99
2023-03-05T08:19:22.049Z,5.00
2023-03-05T08:20:22.048Z,5.03
2023-03-05T08:21:21.944Z,5.04
2023-03-05T08:22:21.976Z,5.06
2023-03-05T08:23:21.920Z,5.06
2023-03-05T08:24:21.993Z,5.09
2023-03-05T08:25:21.919Z,5.10
2023-03-05T08:26:21.942Z,5.07
2023-03-05T08:27:21.871Z,5.09
2023-03-05T08:28:21.877Z,5.09
2023-03-05T08:29:21.871Z,5.10
2023-03-05T08:30:21.879Z,5.12
2023-03-05T08:31:21.909Z,5.13
2023-03-05T08:32:21.940Z,5.17
2023-03-05T08:33:21.801Z,5.18
2023-03-05T08:34:21.816Z,5.21
2023-03-05T08:35:21.923Z,5.22
2023-03-05T08:36:21.785Z,5.24
2023-03-05T08:37:21.738Z,5.27
2023-03-05T08:38:21.755Z,5.28
2023-03-05T08:39:21.715Z,5.31
2023-03-05T08:40:21.780Z,5.33
2023-03-05T08:41:21.724Z,5.33
2023-03-05T08:42:21.710Z,5.36
2023-03-05T08:43:21.673Z,5.38
2023-03-05T08:44:21.678Z,5.40
2023-03-05T08:45:21.692Z,5.43
2023-03-05T08:46:21.759Z,5.43
2023-03-05T08:47:21.616Z,5.45
2023-03-05T08:48:21.616Z,5.46
2023-03-05T08:49:21.596Z,5.48
2023-03-05T08:50:21.644Z,5.49
2023-03-05T08:51:21.581Z,5.49
2023-03-05T08:52:21.614Z,5.49
2023-03-05T08:53:21.546Z,5.49
2023-03-05T08:54:21.541Z,5.53
2023-03-05T08:55:21.515Z,5.54
2023-03-05T08:56:21.573Z,5.58
2023-03-05T08:57:21.482Z,5.63
2023-03-05T08:58:21.514Z,5.65
2023-03-05T08:59:21.477Z,5.72
2023-03-05T09:00:21.467Z,5.75
2023-03-05T09:01:21.481Z,5.76
2023-03-05T09:02:21.462Z,5.76
2023-03-05T09:03:21.396Z,5.75
2023-03-05T09:04:21.410Z,5.75
2023-03-05T09:05:21.373Z,5.75
2023-03-05T09:06:21.399Z,5.76
2023-03-05T09:07:21.373Z,5.75
2023-03-05T09:08:21.367Z,5.75
2023-03-05T09:09:21.313Z,5.75
2023-03-05T09:10:21.324Z,5.76
2023-03-05T09:11:21.305Z,5.78
2023-03-05T09:12:21.340Z,5.76
2023-03-05T09:13:21.302Z,5.75
2023-03-05T09:14:21.276Z,5.76
2023-03-05T09:15:21.224Z,5.78
2023-03-05T09:16:21.284Z,5.78
2023-03-05T09:17:21.242Z,5.76
2023-03-05T09:18:21.237Z,5.76
2023-03-05T09:19:21.187Z,5.78
2023-03-05T09:20:21.181Z,5.76
2023-03-05T09:21:21.147Z,5.75
2023-03-05T09:22:21.215Z,5.72
2023-03-05T09:23:21.142Z,5.68
2023-03-05T09:24:21.138Z,5.71
2023-03-05T09:25:21.082Z,5.74
2023-03-05T09:26:21.144Z,5.76
2023-03-05T09:27:21.076Z,5.79
2023-03-05T09:28:21.116Z,5.81
2023-03-05T09:29:21.058Z,5.79
2023-03-05T09:30:21.064Z,5.82
2023-03-05T09:31:21.074Z,5.83
2023-03-05T09:32:21.064Z,5.83
2023-03-05T09:33:20.990Z,5.82
2023-03-05T09:34:21.022Z,5.83
2023-03-05T09:35:21.032Z,5.83
2023-03-05T09:36:21.000Z,5.89
2023-03-05T09:37:20.940Z,5.89
2023-03-05T09:38:21.032Z,5.86
2023-03-05T09:39:20.913Z,5.86
2023-03-05T09:40:20.969Z,5.85
2023-03-05T09:41:20.886Z,5.86
2023-03-05T09:42:20.911Z,5.85
2023-03-05T09:43:20.869Z,5.85
2023-03-05T09:44:20.894Z,5.86
2023-03-05T09:45:20.842Z,5.86
2023-03-05T09:46:20.877Z,5.90
2023-03-05T09:47:20.801Z,5.90
2023-03-05T09:48:20.842Z,5.94
2023-03-05T09:49:20.804Z,5.97
2023-03-05T09:50:20.849Z,6.01
2023-03-05T09:51:20.763Z,6.04
2023-03-05T09:52:20.794Z,6.06
2023-03-05T09:53:20.731Z,6.03
2023-03-05T09:54:20.749Z,6.03
2023-03-05T09:55:20.737Z,6.04
2023-03-05T09:56:20.719Z,6.06
2023-03-05T09:57:20.677Z,6.09
2023-03-05T09:58:20.723Z,6.15
2023-03-05T09:59:20.684Z,6.14
2023-03-05T10:00:20.788Z,6.14
2023-03-05T10:01:20.678Z,6.14
2023-03-05T10:02:20.624Z,6.15
2023-03-05T10:03:20.675Z,6.15
2023-03-05T10:04:20.675Z,6.17
2023-03-05T10:05:20.600Z,6.18
2023-03-05T10:06:20.582Z,6.19
2023-03-05T10:07:20.552Z,6.21
2023-03-05T10:08:20.556Z,6.18
2023-03-05T10:09:20.547Z,6.18
2023-03-05T10:10:20.616Z,6.17
2023-03-05T10:11:20.493Z,6.17
2023-03-05T10:12:20.492Z,6.17
2023-03-05T10:13:20.478Z,6.18
2023-03-05T10:14:20.531Z,6.18
2023-03-05T10:15:20.426Z,6.19
2023-03-05T10:16:20.531Z,6.22
2023-03-05T10:17:20.453Z,6.22
2023-03-05T10:18:20.448Z,6.28
2023-03-05T10:19:20.388Z,6.30
2023-03-05T10:20:20.456Z,6.31
2023-03-05T10:21:20.356Z,6.31
2023-03-05T10:22:20.370Z,6.33
2023-03-05T10:23:20.350Z,6.34
2023-03-05T10:24:20.338Z,6.33
2023-03-05T10:25:20.308Z,6.34
2023-03-05T10:26:20.325Z,6.31
2023-03-05T10:27:20.303Z,6.31
2023-03-05T10:28:20.322Z,6.31
2023-03-05T10:29:20.261Z,6.31
2023-03-05T10:30:20.347Z,6.31
2023-03-05T10:31:20.298Z,6.31
2023-03-05T10:32:20.336Z,6.31
2023-03-05T10:33:20.244Z,6.33
2023-03-05T10:34:20.191Z,6.34
2023-03-05T10:35:20.239Z,6.36
2023-03-05T10:36:20.169Z,6.33
2023-03-05T10:37:20.204Z,6.31
2023-03-05T10:38:20.151Z,6.31
2023-03-05T10:39:20.146Z,6.31
2023-03-05T10:40:20.129Z,6.28
2023-03-05T10:41:20.157Z,6.25
2023-03-05T10:42:20.080Z,6.21
2023-03-05T10:43:20.085Z,6.17
2023-03-05T10:44:20.056Z,6.17
2023-03-05T10:45:20.075Z,6.17
2023-03-05T10:46:20.154Z,6.18
2023-03-05T10:47:20.027Z,6.17
2023-03-05T10:48:19.996Z,6.15
2023-03-05T10:49:20.018Z,6.12
2023-03-05T10:50:19.979Z,6.15
2023-03-05T10:51:20.000Z,6.17
2023-03-05T10:52:19.957Z,6.18
2023-03-05T10:53:19.977Z,6.19
2023-03-05T10:54:19.942Z,6.19
2023-03-05T10:55:19.943Z,6.21
2023-03-05T10:56:19.881Z,6.19
2023-03-05T10:57:19.927Z,6.21
2023-03-05T10:58:19.867Z,6.21
2023-03-05T10:59:19.896Z,6.22
2023-03-05T11:00:19.842Z,6.27
2023-03-05T11:01:19.885Z,6.27
2023-03-05T11:02:19.881Z,6.28
2023-03-05T11:03:19.828Z,6.30
2023-03-05T11:04:19.799Z,6.28
2023-03-05T11:05:19.791Z,6.28
2023-03-05T11:06:19.758Z,6.27
2023-03-05T11:07:19.783Z,6.27
2023-03-05T11:08:19.732Z,6.27
2023-03-05T11:09:19.756Z,6.28
2023-03-05T11:10:19.702Z,6.27
2023-03-05T11:11:19.727Z,6.27
2023-03-05T11:12:19.679Z,6.27
2023-03-05T11:13:19.686Z,6.28
2023-03-05T11:14:19.668Z,6.30
2023-03-05T11:15:19.666Z,6.33
2023-03-05T11:16:21.051Z,6.37
2023-03-05T11:17:19.623Z,6.40
2023-03-05T11:18:19.590Z,6.44
2023-03-05T11:19:19.654Z,6.46
2023-03-05T11:20:19.574Z,6.48
2023-03-05T11:21:19.615Z,6.51
2023-03-05T11:22:19.554Z,6.51
2023-03-05T11:23:19.556Z,6.51
2023-03-05T11:24:19.523Z,6.52
2023-03-05T11:25:19.561Z,6.55
2023-03-05T11:26:19.485Z,6.49
2023-03-05T11:27:19.499Z,6.52
2023-03-05T11:28:31.988Z,6.51
2023-03-05T11:29:19.521Z,6.51
2023-03-05T11:30:19.449Z,6.51
2023-03-05T11:31:19.465Z,6.51
2023-03-05T11:32:19.476Z,6.49
2023-03-05T11:33:19.419Z,6.49
2023-03-05T11:34:19.411Z,6.49
2023-03-05T11:35:19.434Z,6.48
2023-03-05T11:36:19.372Z,6.48
2023-03-05T11:37:19.379Z,6.46
2023-03-05T11:38:19.343Z,6.41
2023-03-05T11:39:19.376Z,6.38
2023-03-05T11:40:19.365Z,6.40
2023-03-05T11:41:19.317Z,6.40
2023-03-05T11:42:19.306Z,6.40
2023-03-05T11:43:19.340Z,6.38
2023-03-05T11:44:19.257Z,6.34
2023-03-05T11:45:19.280Z,6.34
2023-03-05T11:46:19.260Z,6.33
2023-03-05T11:47:19.288Z,6.33
2023-03-05T11:48:19.241Z,6.31
2023-03-05T11:49:19.239Z,6.31
2023-03-05T11:50:19.164Z,6.34
2023-03-05T11:51:19.200Z,6.36
2023-03-05T11:52:19.171Z,6.37
2023-03-05T11:53:19.145Z,6.40
2023-03-05T11:54:19.111Z,6.40
2023-03-05T11:55:19.143Z,6.40
2023-03-05T11:56:19.181Z,6.40
2023-03-05T11:57:19.129Z,6.38
2023-03-05T11:58:19.069Z,6.38
2023-03-05T11:59:19.095Z,6.37
2023-03-05T12:00:19.091Z,6.37
2023-03-05T12:01:19.071Z,6.37
2023-03-05T12:02:19.595Z,6.36
2023-03-05T12:03:19.037Z,6.34
2023-03-05T12:04:19.011Z,6.36
2023-03-05T12:05:19.020Z,6.36
2023-03-05T12:06:18.994Z,6.37
2023-03-05T12:07:18.990Z,6.38
2023-03-05T12:08:18.961Z,6.41
2023-03-05T12:09:18.984Z,6.46
2023-03-05T12:10:18.927Z,6.48
2023-03-05T12:11:18.957Z,6.46
2023-03-05T12:12:18.910Z,6.46
2023-03-05T12:13:18.909Z,6.48
2023-03-05T12:14:18.899Z,6.46
2023-03-05T12:15:18.912Z,6.46
2023-03-05T12:16:18.926Z,6.49
2023-03-05T12:17:18.848Z,6.51
2023-03-05T12:18:18.853Z,6.52
2023-03-05T12:19:18.885Z,6.55
2023-03-05T12:20:18.802Z,6.61
2023-03-05T12:21:18.796Z,6.62
2023-03-05T12:22:18.739Z,6.59
2023-03-05T12:23:18.788Z,6.59
2023-03-05T12:24:18.771Z,6.58
2023-03-05T12:25:18.734Z,6.58
2023-03-05T12:26:18.736Z,6.58
2023-03-05T12:27:18.750Z,6.58
2023-03-05T12:28:18.678Z,6.58
2023-03-05T12:29:18.686Z,6.58
2023-03-05T12:30:18.674Z,6.59
2023-03-05T12:31:18.758Z,6.59
2023-03-05T12:32:18.667Z,6.62
2023-03-05T12:33:18.636Z,6.62
2023-03-05T12:34:18.638Z,6.64
2023-03-05T12:35:18.642Z,6.64
2023-03-05T12:36:18.608Z,6.62
2023-03-05T12:37:18.618Z,6.62
2023-03-05T12:38:26.682Z,6.61
2023-03-05T12:39:18.561Z,6.61
2023-03-05T12:40:18.527Z,6.61
2023-03-05T12:41:18.554Z,6.62
2023-03-05T12:42:18.489Z,6.61
2023-03-05T12:43:18.502Z,6.61
2023-03-05T12:44:18.469Z,6.59
2023-03-05T12:45:18.483Z,6.59
2023-03-05T12:46:18.557Z,6.59
2023-03-05T12:47:18.447Z,6.61
2023-03-05T12:48:18.444Z,6.58
2023-03-05T12:49:18.430Z,6.58
2023-03-05T12:50:18.386Z,6.56
2023-03-05T12:51:18.432Z,6.55
2023-03-05T12:52:18.352Z,6.55
2023-03-05T12:53:18.376Z,6.54
2023-03-05T12:54:19.158Z,6.52
2023-03-05T12:55:18.356Z,6.54
2023-03-05T12:56:18.374Z,6.54
2023-03-05T12:57:18.356Z,6.55
2023-03-05T12:58:18.304Z,6.54
2023-03-05T12:59:18.321Z,6.52
2023-03-05T13:00:18.245Z,6.52
2023-03-05T13:01:18.289Z,6.54
2023-03-05T13:02:18.248Z,6.51
2023-03-05T13:03:18.260Z,6.49
2023-03-05T13:04:18.271Z,6.49
2023-03-05T13:05:18.271Z,6.51
2023-03-05T13:06:18.180Z,6.49
2023-03-05T13:07:18.177Z,6.48
2023-03-05T13:08:18.226Z,6.44
2023-03-05T13:09:18.251Z,6.44
2023-03-05T13:10:18.115Z,6.44
2023-03-05T13:11:18.125Z,6.44
2023-03-05T13:12:18.121Z,6.46
2023-03-05T13:13:20.055Z,6.48
2023-03-05T13:14:18.062Z,6.48
2023-03-05T13:15:18.059Z,6.49
2023-03-05T13:16:18.088Z,6.52
2023-03-05T13:17:18.076Z,6.51
2023-03-05T13:18:18.013Z,6.51